Time;durP1;ratioP1;P1;durP2;ratioP2;P2;SDS_P1;SDS_P2;PMS_P1;PMS_P2;Temp;Humidity;BMP_temperature;BMP_pressure;BME280_temperature;BME280_humidity;BME280_pressure;Samples;Min_cycle;Max_cycle;Signal;HPM_P1;HPM_P2
2022/04/25 00:02:25;;;;;;;9.63;4.97;;;11.20;99.90;;;;;;5116874;28;20391;-63
2022/04/25 00:04:51;;;;;;;7.60;4.90;;;11.00;99.90;;;;;;5116183;28;20036;-61
2022/04/25 00:07:17;;;;;;;9.55;4.88;;;11.10;99.90;;;;;;5116937;28;20123;-63
2022/04/25 00:09:44;;;;;;;9.27;5.20;;;11.00;99.90;;;;;;5116635;28;20355;-62
2022/04/25 00:12:11;;;;;;;8.20;4.78;;;11.00;99.90;;;;;;5116327;28;20044;-63
2022/04/25 00:14:37;;;;;;;8.30;4.43;;;11.00;99.90;;;;;;5116763;28;20122;-62
2022/04/25 00:17:03;;;;;;;10.40;5.18;;;11.00;99.90;;;;;;5116954;28;20119;-63
2022/04/25 00:19:29;;;;;;;7.15;4.90;;;10.90;99.90;;;;;;5115943;28;20465;-63
2022/04/25 00:21:55;;;;;;;8.18;5.18;;;10.90;99.90;;;;;;5116222;28;20043;-63
2022/04/25 00:24:21;;;;;;;11.60;5.35;;;11.00;99.90;;;;;;5116747;28;20092;-64
2022/04/25 00:26:47;;;;;;;6.65;4.90;;;10.90;99.90;;;;;;5117669;28;20028;-63
2022/04/25 00:29:13;;;;;;;10.35;5.03;;;10.90;99.90;;;;;;5119782;28;20042;-63
2022/04/25 00:31:40;;;;;;;8.80;5.22;;;10.90;99.90;;;;;;5120638;28;20023;-65
2022/04/25 00:34:06;;;;;;;8.35;4.85;;;10.80;99.90;;;;;;5120598;28;20027;-63
2022/04/25 00:36:32;;;;;;;10.52;5.53;;;10.80;99.90;;;;;;5120619;28;20032;-64
2022/04/25 00:38:58;;;;;;;9.95;5.25;;;10.70;99.90;;;;;;5102876;28;20105;-63
2022/04/25 00:41:24;;;;;;;9.23;5.50;;;10.80;99.90;;;;;;5119654;28;20027;-62
2022/04/25 00:43:59;;;;;;;9.73;5.30;;;10.80;99.90;;;;;;5119383;28;20115;-63
2022/04/25 00:46:26;;;;;;;13.13;5.68;;;10.70;99.90;;;;;;5120133;28;20135;-62
2022/04/25 00:48:53;;;;;;;12.43;5.40;;;10.70;99.90;;;;;;5103044;28;20168;-63
2022/04/25 00:51:19;;;;;;;10.20;5.20;;;10.60;99.90;;;;;;5120076;28;20030;-63
2022/04/25 00:53:46;;;;;;;12.88;5.80;;;10.60;99.90;;;;;;5120023;28;20031;-63
2022/04/25 00:56:16;;;;;;;11.35;5.90;;;10.60;99.90;;;;;;5119910;28;20024;-63
2022/04/25 00:58:44;;;;;;;9.15;5.78;;;10.50;99.90;;;;;;5119188;28;20095;-63
2022/04/25 01:01:10;;;;;;;9.70;5.45;;;10.50;99.90;;;;;;5120001;28;20038;-62
2022/04/25 01:03:36;;;;;;;7.32;5.07;;;10.50;99.90;;;;;;5119195;28;20051;-63
2022/04/25 01:06:02;;;;;;;8.82;5.68;;;10.60;99.90;;;;;;5119962;28;20096;-64
2022/04/25 01:08:28;;;;;;;10.00;6.00;;;10.50;99.90;;;;;;5119769;28;20295;-63
2022/04/25 01:10:55;;;;;;;11.88;5.85;;;10.50;99.90;;;;;;5119637;28;20410;-63
2022/04/25 01:13:21;;;;;;;8.13;5.60;;;10.40;99.90;;;;;;5120339;28;20034;-64
2022/04/25 01:15:46;;;;;;;9.73;5.97;;;10.50;99.90;;;;;;5118853;28;20122;-63
2022/04/25 01:18:12;;;;;;;11.48;6.53;;;10.50;99.90;;;;;;5119232;28;20024;-64
2022/04/25 01:20:38;;;;;;;9.63;5.95;;;10.40;99.90;;;;;;5119844;28;20057;-63
2022/04/25 01:27:15;;;;;;;14.48;6.63;;;10.40;99.90;;;;;;5119647;28;20363;-63
2022/04/25 01:28:38;;;;;;;16.60;6.78;;;10.30;99.90;;;;;;5119511;28;20120;-63
2022/04/25 01:31:04;;;;;;;9.10;6.63;;;10.20;99.90;;;;;;5119416;28;20419;-63
2022/04/25 01:33:30;;;;;;;8.88;6.68;;;10.10;99.90;;;;;;5118711;28;20078;-63
2022/04/25 01:35:56;;;;;;;12.10;7.40;;;10.20;99.90;;;;;;5119334;28;20047;-63
2022/04/25 01:38:21;;;;;;;9.60;7.13;;;10.20;99.90;;;;;;5117967;28;20036;-64
2022/04/25 01:40:47;;;;;;;15.30;7.88;;;10.20;99.90;;;;;;5119058;28;20036;-63
2022/04/25 01:43:13;;;;;;;12.68;6.95;;;10.20;99.90;;;;;;5119229;28;20039;-63
2022/04/25 01:45:42;;;;;;;11.75;7.10;;;10.20;99.90;;;;;;5119045;28;20043;-63
2022/04/25 01:48:08;;;;;;;12.05;7.72;;;10.20;99.90;;;;;;5119005;28;20039;-63
2022/04/25 01:50:34;;;;;;;12.05;7.85;;;10.10;99.90;;;;;;5118150;28;20039;-63
2022/04/25 01:53:00;;;;;;;12.30;7.32;;;10.10;99.90;;;;;;5118092;28;20023;-64
2022/04/25 01:55:25;;;;;;;13.35;7.88;;;10.10;99.90;;;;;;5118923;28;20038;-63
2022/04/25 01:57:51;;;;;;;14.10;8.20;;;10.10;99.90;;;;;;5118873;28;20094;-63
2022/04/25 02:00:17;;;;;;;11.30;8.13;;;10.00;99.90;;;;;;5119131;28;20190;-63
2022/04/25 02:02:43;;;;;;;11.80;8.07;;;9.90;99.90;;;;;;5100988;28;20046;-63
2022/04/25 02:05:09;;;;;;;15.05;7.90;;;10.00;99.90;;;;;;5118632;28;20035;-63
2022/04/25 02:07:35;;;;;;;14.20;8.48;;;9.90;99.90;;;;;;5118612;28;20031;-63
2022/04/25 02:10:01;;;;;;;13.95;7.68;;;9.90;99.90;;;;;;5117746;28;20031;-64
2022/04/25 02:12:26;;;;;;;11.57;8.38;;;9.80;99.90;;;;;;5100869;28;20108;-63
2022/04/25 02:14:52;;;;;;;12.98;8.27;;;9.80;99.90;;;;;;5118093;28;20104;-63
2022/04/25 02:17:18;;;;;;;11.80;8.10;;;9.80;99.90;;;;;;5117916;28;20042;-63
2022/04/25 02:19:44;;;;;;;10.65;8.05;;;9.80;99.90;;;;;;5118505;28;20062;-63
2022/04/25 02:22:11;;;;;;;11.50;8.10;;;9.80;99.90;;;;;;5117421;28;20164;-64
2022/04/25 02:24:38;;;;;;;11.40;8.60;;;9.80;99.90;;;;;;5118345;28;20028;-63
2022/04/25 02:27:04;;;;;;;11.05;8.80;;;9.90;99.90;;;;;;5118476;28;20114;-63
2022/04/25 02:29:35;;;;;;;15.13;9.13;;;9.80;99.90;;;;;;5118435;28;20394;-63
2022/04/25 02:32:01;;;;;;;14.65;8.38;;;9.80;99.90;;;;;;5118202;28;20043;-63
2022/04/25 02:34:31;;;;;;;12.90;8.35;;;9.70;99.90;;;;;;5118023;28;20055;-63
2022/04/25 02:36:58;;;;;;;14.07;8.70;;;9.70;99.90;;;;;;5117287;28;20050;-64
2022/04/25 02:39:24;;;;;;;14.43;8.82;;;9.70;99.90;;;;;;5118135;28;20035;-64
2022/04/25 02:41:51;;;;;;;14.25;9.15;;;9.70;99.90;;;;;;5117944;28;20057;-64
2022/04/25 02:44:18;;;;;;;13.98;8.93;;;9.70;99.90;;;;;;5117739;28;20039;-64
2022/04/25 02:46:44;;;;;;;13.15;8.73;;;9.70;99.90;;;;;;5117822;28;20349;-64
2022/04/25 02:49:09;;;;;;;14.68;8.93;;;9.60;99.90;;;;;;5117347;28;20032;-64
2022/04/25 02:51:35;;;;;;;13.65;8.48;;;9.60;99.90;;;;;;5117795;28;20047;-65
2022/04/25 02:54:02;;;;;;;12.48;8.35;;;9.60;99.90;;;;;;5116879;28;20036;-64
2022/04/25 02:56:28;;;;;;;16.23;9.70;;;9.60;99.90;;;;;;5117774;28;20032;-64
2022/04/25 02:58:54;;;;;;;13.50;8.57;;;9.70;99.90;;;;;;5117802;28;20053;-64
2022/04/25 03:01:20;;;;;;;17.27;9.63;;;9.60;99.90;;;;;;5117624;28;20118;-63
2022/04/25 03:03:46;;;;;;;13.27;9.50;;;9.50;99.90;;;;;;5117770;28;20299;-62
2022/04/25 03:06:11;;;;;;;16.60;9.45;;;9.50;99.90;;;;;;5117446;28;20116;-62
2022/04/25 03:08:39;;;;;;;14.55;9.35;;;9.60;99.90;;;;;;5117462;28;20391;-63
2022/04/25 03:11:08;;;;;;;12.68;9.25;;;9.50;99.90;;;;;;5117463;28;20019;-63
2022/04/25 03:13:35;;;;;;;15.63;9.73;;;9.40;99.90;;;;;;5117529;28;20307;-62
2022/04/25 03:16:03;;;;;;;14.52;9.60;;;9.50;99.90;;;;;;5116736;28;20032;-63
2022/04/25 03:18:29;;;;;;;15.18;9.60;;;9.40;99.90;;;;;;5117372;28;20027;-65
2022/04/25 03:20:55;;;;;;;15.88;9.77;;;9.40;99.90;;;;;;5117365;28;20040;-64
2022/04/25 03:23:22;;;;;;;15.70;10.70;;;9.40;99.90;;;;;;5116486;28;20039;-63
2022/04/25 03:25:49;;;;;;;20.00;10.75;;;9.40;99.90;;;;;;5116473;28;20390;-64
2022/04/25 03:28:16;;;;;;;14.82;10.25;;;9.50;99.90;;;;;;5117273;28;20036;-63
2022/04/25 03:30:42;;;;;;;18.67;10.60;;;9.40;99.90;;;;;;5117417;28;20035;-63
2022/04/25 03:33:12;;;;;;;13.38;9.70;;;9.40;99.90;;;;;;5117124;28;20296;-62
2022/04/25 03:35:41;;;;;;;15.70;10.85;;;9.50;99.90;;;;;;5116299;28;20115;-63
2022/04/25 03:38:08;;;;;;;14.52;9.65;;;9.50;99.90;;;;;;5117374;28;20132;-63
2022/04/25 03:40:37;;;;;;;16.00;9.93;;;9.60;99.90;;;;;;5117117;28;20422;-63
2022/04/25 03:43:07;;;;;;;14.68;10.30;;;9.50;99.90;;;;;;5117159;28;20040;-63
2022/04/25 03:45:33;;;;;;;19.17;10.40;;;9.60;99.90;;;;;;5117123;28;20044;-63
2022/04/25 03:47:59;;;;;;;17.98;11.23;;;9.50;99.90;;;;;;5117807;28;20118;-62
2022/04/25 03:50:25;;;;;;;16.90;11.75;;;9.50;99.90;;;;;;5116169;28;20038;-63
2022/04/25 03:52:51;;;;;;;14.05;9.90;;;9.40;99.90;;;;;;5116295;28;20028;-63
2022/04/25 03:58:04;;;;;;;14.30;10.43;;;9.40;99.90;;;;;;5117471;28;20043;-63
2022/04/25 04:00:32;;;;;;;19.50;11.40;;;9.30;99.90;;;;;;5116892;28;20024;-63
2022/04/25 04:02:58;;;;;;;16.02;11.55;;;9.40;99.90;;;;;;5120843;28;20020;-63
2022/04/25 04:05:25;;;;;;;16.33;11.60;;;9.30;99.90;;;;;;5121054;28;20072;-63
2022/04/25 04:07:51;;;;;;;16.67;11.35;;;9.30;99.90;;;;;;5121204;28;20023;-64
2022/04/25 04:10:19;;;;;;;16.30;11.13;;;9.30;99.90;;;;;;5120849;28;20039;-63
2022/04/25 04:12:48;;;;;;;17.45;12.05;;;9.30;99.90;;;;;;5121122;28;20043;-63
2022/04/25 04:15:16;;;;;;;18.83;12.10;;;9.40;99.90;;;;;;5120897;28;20031;-63
2022/04/25 04:17:42;;;;;;;20.48;12.15;;;9.30;99.90;;;;;;5121201;28;20088;-63
2022/04/25 04:20:11;;;;;;;15.52;11.60;;;9.30;99.90;;;;;;5120883;28;20031;-63
2022/04/25 04:22:40;;;;;;;17.92;12.38;;;9.30;99.90;;;;;;5120931;27;20032;-63
2022/04/25 04:25:12;;;;;;;18.20;11.90;;;9.30;99.90;;;;;;5120779;28;20042;-63
2022/04/25 04:27:42;;;;;;;14.57;11.48;;;9.30;99.90;;;;;;5102750;28;20096;-63
2022/04/25 04:30:10;;;;;;;16.40;11.45;;;9.40;99.90;;;;;;5120569;28;20028;-63
2022/04/25 04:32:38;;;;;;;17.98;11.38;;;9.40;99.90;;;;;;5120706;28;20406;-62
2022/04/25 04:35:08;;;;;;;17.60;11.85;;;9.40;99.90;;;;;;5120666;28;20047;-62
2022/04/25 04:37:34;;;;;;;17.63;11.38;;;9.40;99.90;;;;;;5120224;28;20036;-63
2022/04/25 04:42:45;;;;;;;19.85;11.90;;;9.40;99.90;;;;;;5120473;28;20040;-63
2022/04/25 04:45:11;;;;;;;19.55;12.50;;;9.40;99.90;;;;;;5120139;28;20126;-64
2022/04/25 04:47:39;;;;;;;18.35;12.38;;;9.50;99.90;;;;;;5120172;28;20092;-64
2022/04/25 04:50:07;;;;;;;16.42;11.55;;;9.50;99.90;;;;;;5119997;28;20067;-64
2022/04/25 04:52:34;;;;;;;16.48;12.25;;;9.50;99.90;;;;;;5119818;28;20039;-64
2022/04/25 04:55:00;;;;;;;15.27;11.73;;;9.50;99.90;;;;;;5119800;28;20088;-63
2022/04/25 04:57:25;;;;;;;15.25;11.45;;;9.50;99.90;;;;;;5120031;28;20024;-63
2022/04/25 04:59:51;;;;;;;16.95;11.77;;;9.50;99.90;;;;;;5119918;28;20272;-64
2022/04/25 05:02:17;;;;;;;18.17;11.68;;;9.50;99.90;;;;;;5119746;28;20111;-63
2022/04/25 05:04:46;;;;;;;19.48;12.05;;;9.40;99.90;;;;;;5119949;28;20032;-64
2022/04/25 05:07:12;;;;;;;20.35;12.00;;;9.50;99.90;;;;;;5118919;28;20356;-63
2022/04/25 05:09:38;;;;;;;16.05;12.20;;;9.50;99.90;;;;;;5119716;28;20053;-62
2022/04/25 05:12:04;;;;;;;17.63;11.73;;;9.60;99.90;;;;;;5118909;28;20062;-63
2022/04/25 05:14:30;;;;;;;17.63;11.18;;;9.50;99.90;;;;;;5119736;28;20034;-64
2022/04/25 05:16:56;;;;;;;19.27;11.82;;;9.60;99.90;;;;;;5118884;28;20035;-65
2022/04/25 05:19:22;;;;;;;18.23;12.20;;;9.60;99.90;;;;;;5118744;28;20414;-63
2022/04/25 05:21:48;;;;;;;17.67;11.73;;;9.60;99.90;;;;;;5119787;28;20306;-63
2022/04/25 05:24:14;;;;;;;19.42;11.80;;;9.60;99.90;;;;;;5101880;28;20097;-63
2022/04/25 05:26:40;;;;;;;16.10;11.55;;;9.60;99.90;;;;;;5118627;28;20032;-63
2022/04/25 05:29:06;;;;;;;17.05;11.50;;;9.60;99.90;;;;;;5118580;28;20032;-63
2022/04/25 05:31:32;;;;;;;18.10;11.82;;;9.70;99.90;;;;;;5119459;28;20118;-63
2022/04/25 05:33:59;;;;;;;16.05;11.15;;;9.80;99.90;;;;;;5118526;28;20028;-63
2022/04/25 05:36:25;;;;;;;17.38;11.55;;;9.80;99.90;;;;;;5118852;28;20144;-63
2022/04/25 05:38:51;;;;;;;17.77;11.95;;;9.90;99.90;;;;;;5119255;28;20494;-63
2022/04/25 05:41:18;;;;;;;16.00;11.27;;;10.10;99.90;;;;;;5119333;28;20398;-62
2022/04/25 05:43:43;;;;;;;15.95;10.75;;;10.20;99.90;;;;;;5119326;28;20027;-64
2022/04/25 05:46:09;;;;;;;16.15;10.60;;;10.40;99.90;;;;;;5119511;28;20135;-63
2022/04/25 05:54:05;;;;;;;18.50;10.18;;;10.70;99.90;;;;;;5118601;28;20307;-63
2022/04/25 05:56:31;;;;;;;12.88;9.57;;;10.70;99.90;;;;;;5118804;28;20036;-63
2022/04/25 05:58:57;;;;;;;13.13;9.82;;;10.80;99.90;;;;;;5084432;28;20046;-63
2022/04/25 06:01:23;;;;;;;14.30;10.00;;;10.90;99.90;;;;;;5118864;28;20035;-63
2022/04/25 06:03:48;;;;;;;15.60;9.32;;;11.10;99.90;;;;;;5119148;28;20027;-64
2022/04/25 06:06:14;;;;;;;14.60;9.45;;;11.10;99.90;;;;;;5118014;28;20067;-64
2022/04/25 06:08:40;;;;;;;18.10;10.45;;;11.10;99.90;;;;;;5118021;28;20032;-63
2022/04/25 06:11:06;;;;;;;21.73;10.35;;;11.00;99.90;;;;;;5118421;28;20390;-64
2022/04/25 06:13:32;;;;;;;17.13;10.43;;;11.20;99.90;;;;;;5118044;28;20027;-64
2022/04/25 06:15:57;;;;;;;15.02;9.65;;;11.20;99.90;;;;;;5117770;28;20081;-63
2022/04/25 06:18:23;;;;;;;14.23;9.82;;;11.20;99.90;;;;;;5119011;28;20051;-63
2022/04/25 06:20:50;;;;;;;15.82;10.48;;;11.40;99.90;;;;;;5118401;28;20126;-64
2022/04/25 06:23:18;;;;;;;14.00;9.80;;;11.40;99.90;;;;;;5118344;28;20466;-64
2022/04/25 06:25:43;;;;;;;14.60;9.45;;;11.50;99.90;;;;;;5117059;28;20042;-66
2022/04/25 06:28:09;;;;;;;15.27;9.48;;;11.90;99.90;;;;;;5118734;28;20395;-62
2022/04/25 06:30:35;;;;;;;16.27;9.75;;;12.00;99.90;;;;;;5118335;28;20031;-62
2022/04/25 06:33:01;;;;;;;22.80;11.07;;;12.10;99.90;;;;;;5118137;28;20136;-63
2022/04/25 06:35:28;;;;;;;17.05;9.70;;;12.20;99.90;;;;;;5117390;28;20028;-63
2022/04/25 06:37:55;;;;;;;17.85;10.20;;;12.20;99.90;;;;;;5118064;28;20133;-64
2022/04/25 06:40:21;;;;;;;18.38;10.32;;;12.10;99.90;;;;;;5118163;28;20391;-64
2022/04/25 06:42:48;;;;;;;14.68;9.95;;;12.20;99.90;;;;;;5117937;28;20027;-64
2022/04/25 06:45:15;;;;;;;14.23;10.38;;;12.10;99.90;;;;;;5117721;28;20043;-64
2022/04/25 06:47:42;;;;;;;13.73;9.55;;;12.00;99.90;;;;;;5117106;28;20055;-63
2022/04/25 06:50:09;;;;;;;14.15;9.32;;;12.10;99.90;;;;;;5117889;28;20345;-63
2022/04/25 06:52:35;;;;;;;17.23;9.98;;;12.10;99.90;;;;;;5100501;28;20028;-63
2022/04/25 06:55:04;;;;;;;14.10;9.05;;;12.20;99.90;;;;;;5117808;28;20032;-63
2022/04/25 06:57:33;;;;;;;17.38;10.05;;;12.30;99.90;;;;;;5117698;28;20096;-63
2022/04/25 07:00:00;;;;;;;19.77;10.02;;;12.50;99.90;;;;;;5116929;28;20031;-62
2022/04/25 07:02:26;;;;;;;14.32;9.82;;;12.70;99.90;;;;;;5117705;28;20295;-63
2022/04/25 07:04:51;;;;;;;14.65;10.18;;;12.70;99.90;;;;;;5117621;28;20058;-62
2022/04/25 07:07:17;;;;;;;16.40;10.32;;;12.70;99.90;;;;;;5117553;28;20099;-62
2022/04/25 07:09:43;;;;;;;17.80;10.73;;;12.70;99.90;;;;;;5117705;28;20340;-60
2022/04/25 07:12:09;;;;;;;16.65;11.27;;;12.60;99.90;;;;;;5117703;28;20024;-62
2022/04/25 07:14:35;;;;;;;16.45;10.73;;;12.70;99.90;;;;;;5117613;28;20043;-62
2022/04/25 07:17:03;;;;;;;15.13;10.20;;;12.60;99.90;;;;;;5117668;28;20407;-63
2022/04/25 07:19:29;;;;;;;23.38;11.38;;;12.90;99.90;;;;;;5117718;28;20416;-63
2022/04/25 07:30:08;;;;;;;15.70;11.27;;;14.10;99.90;;;;;;5116657;28;20070;-64
2022/04/25 07:32:37;;;;;;;14.45;11.05;;;14.20;99.90;;;;;;5117459;28;20310;-63
2022/04/25 07:35:06;;;;;;;15.38;11.30;;;14.10;99.90;;;;;;5117661;28;20020;-62
2022/04/25 07:37:33;;;;;;;16.15;11.30;;;14.00;99.90;;;;;;5117389;28;20035;-63
2022/04/25 07:40:00;;;;;;;15.88;11.18;;;13.80;99.90;;;;;;5117373;28;20370;-62
2022/04/25 07:42:26;;;;;;;17.17;11.45;;;13.90;99.90;;;;;;5117305;28;20418;-63
2022/04/25 07:44:52;;;;;;;16.60;11.23;;;14.00;99.90;;;;;;5116405;28;20040;-62
2022/04/25 07:47:18;;;;;;;14.05;10.63;;;14.30;99.90;;;;;;5117235;28;20040;-61
2022/04/25 07:49:43;;;;;;;15.57;11.15;;;14.30;99.90;;;;;;5117725;28;20047;-63
2022/04/25 07:52:09;;;;;;;17.50;11.77;;;14.50;99.90;;;;;;5116527;28;20450;-62
2022/04/25 07:54:35;;;;;;;16.08;10.35;;;14.50;99.90;;;;;;5116455;28;20032;-63
2022/04/25 07:57:03;;;;;;;16.20;11.75;;;14.40;99.90;;;;;;5116503;28;20024;-62
2022/04/25 07:59:29;;;;;;;16.02;12.15;;;14.70;99.90;;;;;;5117252;28;20345;-62
2022/04/25 08:01:56;;;;;;;17.92;11.75;;;14.80;99.90;;;;;;5116389;28;20039;-63
2022/04/25 08:04:21;;;;;;;17.00;11.77;;;14.90;99.90;;;;;;5117503;28;20104;-63
2022/04/25 08:06:47;;;;;;;18.45;11.60;;;14.80;99.90;;;;;;5117160;28;20398;-62
2022/04/25 08:09:15;;;;;;;16.88;11.95;;;15.00;99.90;;;;;;5116351;28;20042;-62
2022/04/25 08:11:41;;;;;;;15.52;11.68;;;15.30;99.90;;;;;;5116415;28;20028;-63
2022/04/25 08:19:37;;;;;;;12.73;11.20;;;15.30;99.90;;;;;;5116997;28;20040;-63
2022/04/25 08:22:07;;;;;;;14.18;11.32;;;14.70;99.90;;;;;;5116168;28;20027;-62
2022/04/25 08:24:33;;;;;;;12.30;10.70;;;14.90;99.90;;;;;;5117247;28;20043;-62
2022/04/25 08:26:59;;;;;;;14.98;11.13;;;15.10;99.90;;;;;;5116176;28;20031;-62
2022/04/25 08:29:25;;;;;;;13.35;11.43;;;15.30;99.90;;;;;;5117486;28;20028;-61
2022/04/25 08:31:51;;;;;;;13.25;9.90;;;15.50;99.90;;;;;;5099205;28;20426;-63
2022/04/25 08:34:17;;;;;;;13.82;11.38;;;15.50;99.90;;;;;;5116854;28;20118;-63
2022/04/25 08:36:43;;;;;;;12.13;10.90;;;15.50;99.90;;;;;;5116261;28;20310;-63
2022/04/25 08:39:09;;;;;;;20.48;12.38;;;15.20;99.90;;;;;;5099071;28;20054;-63
2022/04/25 08:41:56;;;;;;;14.70;11.30;;;15.00;99.90;;;;;;5099040;28;20416;-63
2022/04/25 08:44:24;;;;;;;13.27;11.13;;;14.80;99.90;;;;;;5115896;28;20035;-62
2022/04/25 08:46:54;;;;;;;14.55;10.75;;;14.60;99.90;;;;;;5116510;28;20047;-62
2022/04/25 08:49:21;;;;;;;13.48;10.07;;;14.40;99.90;;;;;;5120408;28;20035;-63
2022/04/25 08:51:49;;;;;;;12.98;10.65;;;14.50;99.90;;;;;;5119688;28;20049;-63
2022/04/25 08:54:19;;;;;;;13.07;11.05;;;14.50;99.90;;;;;;5120354;28;20036;-64
2022/04/25 08:56:46;;;;;;;15.98;11.18;;;14.60;99.90;;;;;;5102527;28;20304;-63
2022/04/25 08:59:13;;;;;;;13.75;11.60;;;14.60;99.90;;;;;;5120332;28;20107;-63
2022/04/25 09:01:41;;;;;;;14.02;11.27;;;14.50;99.90;;;;;;5120223;28;20023;-63
2022/04/25 09:04:07;;;;;;;14.15;11.00;;;14.50;99.90;;;;;;5119535;28;20031;-63
2022/04/25 09:06:33;;;;;;;12.57;10.40;;;14.60;99.90;;;;;;5102388;28;20040;-63
2022/04/25 09:08:59;;;;;;;13.90;10.52;;;14.80;99.90;;;;;;5119932;28;20085;-63
2022/04/25 09:14:11;;;;;;;11.15;9.63;;;15.60;99.90;;;;;;5120039;28;20028;-62
2022/04/25 09:16:39;;;;;;;12.30;9.52;;;16.00;99.90;;;;;;5120375;28;20394;-63
2022/04/25 09:19:05;;;;;;;11.57;9.32;;;16.20;99.90;;;;;;5120042;28;20082;-62
2022/04/25 09:21:39;;;;;;;13.00;9.63;;;16.20;99.90;;;;;;5119074;28;20344;-62
2022/04/25 09:24:19;;;;;;;12.80;9.38;;;16.10;99.90;;;;;;5119264;28;20108;-64
2022/04/25 09:26:45;;;;;;;11.15;9.45;;;15.90;99.90;;;;;;5120125;28;20027;-62
2022/04/25 09:29:12;;;;;;;9.65;8.75;;;15.90;99.90;;;;;;5118791;28;20399;-62
2022/04/25 09:31:47;;;;;;;7.82;7.03;;;15.70;99.90;;;;;;5119657;28;20020;-63
2022/04/25 09:34:15;;;;;;;8.95;7.85;;;15.70;99.90;;;;;;5119578;28;20047;-63
2022/04/25 09:36:48;;;;;;;11.10;8.20;;;15.60;99.90;;;;;;5119414;28;20016;-63
2022/04/25 09:39:28;;;;;;;10.77;8.13;;;15.50;99.90;;;;;;5084885;28;20127;-63
2022/04/25 09:41:54;;;;;;;11.25;8.27;;;15.60;99.90;;;;;;5118924;28;20036;-63
2022/04/25 09:44:19;;;;;;;8.70;7.88;;;15.50;99.90;;;;;;5119149;28;20031;-63
2022/04/25 09:46:47;;;;;;;12.43;8.35;;;15.70;99.90;;;;;;5119316;28;20095;-63
2022/04/25 09:49:20;;;;;;;12.15;8.93;;;16.00;99.90;;;;;;5119116;28;20310;-63
2022/04/25 09:52:01;;;;;;;9.98;7.95;;;16.20;99.90;;;;;;5119233;28;20023;-63
2022/04/25 09:54:27;;;;;;;8.10;7.30;;;16.40;99.90;;;;;;5118395;28;20031;-64
2022/04/25 09:56:53;;;;;;;9.25;7.20;;;16.70;99.90;;;;;;5118269;28;20028;-63
2022/04/25 09:59:21;;;;;;;9.23;8.25;;;17.00;99.90;;;;;;5117864;28;20039;-62
2022/04/25 10:02:09;;;;;;;15.32;8.90;;;17.10;99.90;;;;;;5118942;28;20044;-63
2022/04/25 10:04:38;;;;;;;10.57;8.73;;;16.80;99.90;;;;;;5118287;28;20047;-64
2022/04/25 10:07:06;;;;;;;9.57;8.68;;;16.60;99.90;;;;;;5118122;28;20038;-63
2022/04/25 10:09:35;;;;;;;12.05;9.25;;;16.40;99.90;;;;;;5118095;28;20043;-63
2022/04/25 10:12:04;;;;;;;12.43;9.27;;;16.30;99.90;;;;;;5118779;28;20106;-63
2022/04/25 10:14:30;;;;;;;10.43;9.27;;;16.40;99.90;;;;;;5118840;28;20028;-64
2022/04/25 10:16:57;;;;;;;12.98;9.50;;;16.60;99.90;;;;;;5101084;28;20047;-63
2022/04/25 10:19:27;;;;;;;11.68;10.05;;;16.80;99.90;;;;;;5118642;28;20126;-64
2022/04/25 10:21:55;;;;;;;14.63;10.55;;;16.40;99.90;;;;;;5117883;28;20115;-63
2022/04/25 10:24:21;;;;;;;14.23;9.77;;;16.40;99.90;;;;;;5117947;28;20295;-63
2022/04/25 10:26:49;;;;;;;12.43;9.48;;;16.30;99.90;;;;;;5118526;28;20351;-63
2022/04/25 10:29:24;;;;;;;13.57;10.43;;;16.20;99.90;;;;;;5118322;28;20040;-63
2022/04/25 10:31:55;;;;;;;13.10;9.98;;;16.30;99.90;;;;;;5118374;28;20038;-64
2022/04/25 10:34:45;;;;;;;12.27;10.10;;;16.00;99.90;;;;;;5118469;28;20023;-62
2022/04/25 10:37:50;;;;;;;12.80;10.45;;;15.80;99.90;;;;;;5118433;28;20110;-64
2022/04/25 10:44:10;;;;;;;14.18;10.30;;;15.70;99.90;;;;;;5036484;28;20042;-63
2022/04/25 10:46:00;;;;;;;9.43;8.40;;;15.80;99.90;;;;;;5103058;28;20054;-63
2022/04/25 10:48:27;;;;;;;9.70;8.70;;;16.20;99.90;;;;;;5118164;28;20028;-63
2022/04/25 10:51:12;;;;;;;11.63;9.27;;;16.20;99.90;;;;;;5118052;28;20328;-62
2022/04/25 10:54:01;;;;;;;11.82;9.68;;;16.00;99.90;;;;;;5117265;28;20132;-64
2022/04/25 10:56:28;;;;;;;11.95;9.05;;;16.40;99.90;;;;;;5118114;28;20027;-64
2022/04/25 10:59:23;;;;;;;10.48;8.95;;;17.50;99.90;;;;;;5118018;28;20019;-63
2022/04/25 11:01:53;;;;;;;9.90;8.30;;;19.10;99.90;;;;;;5117247;28;20085;-63
2022/04/25 11:04:21;;;;;;;9.32;8.35;;;20.30;99.90;;;;;;5117909;28;20038;-64
2022/04/25 11:06:48;;;;;;;8.75;7.75;;;21.40;99.90;;;;;;5117887;28;20076;-64
2022/04/25 11:09:39;;;;;;;8.73;7.93;;;22.20;99.90;;;;;;5117908;28;20043;-64
2022/04/25 11:12:05;;;;;;;8.30;7.43;;;22.30;99.90;;;;;;5117677;28;20028;-63
2022/04/25 11:14:31;;;;;;;8.43;7.00;;;21.80;99.90;;;;;;5100143;28;20028;-64
2022/04/25 11:17:10;;;;;;;12.60;8.30;;;21.90;99.90;;;;;;5116997;28;20050;-63
2022/04/25 11:19:53;;;;;;;8.90;8.00;;;22.50;99.70;;;;;;5117732;28;20019;-63
2022/04/25 11:22:40;;;;;;;9.07;8.18;;;21.80;99.90;;;;;;5116948;28;20383;-63
2022/04/25 11:25:35;;;;;;;9.52;8.40;;;22.30;99.80;;;;;;5117567;28;20118;-64
2022/04/25 11:28:08;;;;;;;10.25;8.90;;;23.50;98.30;;;;;;5115380;28;20096;-63
2022/04/25 11:30:35;;;;;;;10.63;9.63;;;23.50;98.40;;;;;;5117667;28;20107;-64
2022/04/25 11:33:08;;;;;;;11.32;10.23;;;22.60;98.30;;;;;;5117506;28;20051;-64
2022/04/25 11:35:35;;;;;;;11.23;10.00;;;21.20;99.80;;;;;;5117646;28;20028;-63
2022/04/25 11:38:02;;;;;;;10.68;9.57;;;19.20;99.90;;;;;;5117423;28;20317;-63
2022/04/25 11:40:28;;;;;;;10.63;9.55;;;18.70;99.90;;;;;;5117458;28;20039;-63
2022/04/25 11:42:54;;;;;;;10.57;9.48;;;18.60;99.90;;;;;;5099742;28;20093;-63
2022/04/25 11:45:23;;;;;;;10.73;8.65;;;18.90;99.90;;;;;;5117230;28;20139;-63
2022/04/25 11:47:49;;;;;;;10.30;9.05;;;19.40;99.90;;;;;;5116747;28;20024;-63
2022/04/25 11:50:19;;;;;;;9.07;8.18;;;19.80;99.90;;;;;;5117300;28;20184;-63
2022/04/25 11:52:47;;;;;;;10.10;8.57;;;20.70;99.90;;;;;;5117561;28;20027;-64
2022/04/25 11:55:15;;;;;;;8.95;8.13;;;21.00;99.90;;;;;;5117284;28;20028;-64
2022/04/25 11:57:43;;;;;;;9.13;8.05;;;22.60;99.20;;;;;;5117149;28;20032;-64
2022/04/25 12:00:17;;;;;;;7.90;7.07;;;23.50;97.00;;;;;;5117603;28;20040;-63
2022/04/25 12:02:44;;;;;;;8.48;7.68;;;24.90;94.90;;;;;;5099422;28;20080;-64
2022/04/25 12:05:10;;;;;;;8.52;5.75;;;23.60;93.80;;;;;;5116489;28;20382;-64
2022/04/25 12:07:38;;;;;;;5.95;5.45;;;23.90;95.20;;;;;;5117200;28;20382;-63
2022/04/25 12:15:43;;;;;;;4.28;3.92;;;24.40;91.20;;;;;;5117224;28;20032;-64
2022/04/25 12:18:16;;;;;;;4.97;4.50;;;24.60;92.40;;;;;;5116857;28;20031;-63
2022/04/25 12:20:44;;;;;;;5.05;4.60;;;26.50;90.60;;;;;;5116414;28;20039;-64
2022/04/25 12:23:27;;;;;;;4.70;4.30;;;25.00;88.30;;;;;;5118577;28;20047;-64
2022/04/25 12:25:53;;;;;;;4.65;4.18;;;24.40;90.70;;;;;;5121005;28;20032;-64
2022/04/25 12:28:24;;;;;;;5.28;3.90;;;24.80;90.40;;;;;;5121150;28;20034;-63
2022/04/25 12:30:57;;;;;;;4.07;3.78;;;25.30;88.50;;;;;;5120053;28;20036;-62
2022/04/25 12:33:41;;;;;;;5.05;3.50;;;26.40;87.20;;;;;;5120063;28;20028;-64
2022/04/25 12:36:20;;;;;;;3.78;3.38;;;25.80;85.50;;;;;;5120756;28;20027;-64
2022/04/25 12:38:54;;;;;;;4.03;3.72;;;25.70;85.80;;;;;;5119965;28;20349;-64
2022/04/25 12:41:31;;;;;;;3.65;3.35;;;25.90;84.40;;;;;;5119798;28;20028;-62
2022/04/25 12:44:18;;;;;;;4.00;3.70;;;25.70;84.50;;;;;;5119866;28;20032;-65
2022/04/25 12:46:49;;;;;;;4.15;3.80;;;25.60;83.60;;;;;;5120168;28;20123;-63
2022/04/25 12:49:20;;;;;;;4.13;3.83;;;24.40;85.10;;;;;;5119747;28;20059;-64
2022/04/25 12:51:51;;;;;;;4.22;3.92;;;24.30;85.60;;;;;;5120385;28;20088;-63
2022/04/25 12:54:32;;;;;;;4.55;4.15;;;23.80;87.40;;;;;;5120318;28;20055;-63
2022/04/25 12:57:24;;;;;;;5.18;4.68;;;23.10;90.10;;;;;;5119718;28;20047;-64
2022/04/25 12:59:53;;;;;;;5.13;4.73;;;22.70;91.00;;;;;;5120343;28;20042;-64
2022/04/25 13:02:32;;;;;;;6.25;5.25;;;22.10;91.70;;;;;;5119447;28;20028;-64
2022/04/25 13:05:00;;;;;;;6.97;5.95;;;21.70;92.60;;;;;;5119328;28;20047;-64
2022/04/25 13:07:28;;;;;;;6.18;5.60;;;21.10;93.80;;;;;;5120087;28;20039;-63
2022/04/25 13:09:59;;;;;;;5.85;5.28;;;21.40;93.50;;;;;;5120042;28;20108;-63
2022/04/25 13:12:32;;;;;;;6.20;5.68;;;21.40;93.00;;;;;;5119473;28;20100;-65
2022/04/25 13:14:59;;;;;;;7.78;7.13;;;21.80;92.30;;;;;;5120075;28;20028;-63
2022/04/25 13:17:25;;;;;;;8.05;7.18;;;21.80;92.90;;;;;;5119929;28;20035;-63
2022/04/25 13:19:51;;;;;;;7.80;7.07;;;21.40;93.60;;;;;;5102358;28;20048;-64
2022/04/25 13:22:17;;;;;;;6.93;6.32;;;21.30;94.00;;;;;;5119368;28;20036;-63
2022/04/25 13:24:46;;;;;;;6.93;6.38;;;22.00;94.20;;;;;;5119193;28;20317;-64